Metan, Argentina
Current Conditions -  °F | °C
As of 3:00 PM on Thursday 23 Oct 2014 (Local Time) from SASA Reporting Station
Scattered Clouds Scattered Clouds  
Wind Chill: 82°   Ceiling: Unl
Heat Index: 82°   Visibility: 6mi
Dew Point: 57°   Wind: 7mph
Humidity: 42%   Direction: 90°E
Pressure: 30.03"   Gusts: NA
Location:  25.48°S, 64.95°W
Report Text: SASA 231800Z 09006KT 9999 SCT010TCU FEW030CB 28/14 Q1017
Loading
Personal Weather Stations






























Interactive Weather Map
Tropical Storm Tracking
New forecast layout! Learn more

10-Day Weather Forecast

Advertisements
Track Severe Weather on mobile